sensor_id;sensor_type;location;lat;lon;timestamp;P1;durP1;ratioP1;P2;durP2;ratioP2
55172;SDS011;41061;52.822;6.860;2022-07-03T00:01:28;3.55;;;1.27;;
55172;SDS011;41061;52.822;6.860;2022-07-03T00:03:55;4.82;;;1.45;;
55172;SDS011;41061;52.822;6.860;2022-07-03T00:06:20;3.33;;;1.00;;
55172;SDS011;41061;52.822;6.860;2022-07-03T00:08:46;1.92;;;1.02;;
55172;SDS011;41061;52.822;6.860;2022-07-03T00:11:12;2.53;;;0.90;;
55172;SDS011;41061;52.822;6.860;2022-07-03T00:13:38;1.30;;;0.90;;
55172;SDS011;41061;52.822;6.860;2022-07-03T00:16:07;4.10;;;1.25;;
55172;SDS011;41061;52.822;6.860;2022-07-03T00:18:32;2.72;;;1.10;;
55172;SDS011;41061;52.822;6.860;2022-07-03T00:20:59;2.17;;;1.30;;
55172;SDS011;41061;52.822;6.860;2022-07-03T00:23:30;4.22;;;1.02;;
55172;SDS011;41061;52.822;6.860;2022-07-03T00:26:02;5.28;;;1.23;;
55172;SDS011;41061;52.822;6.860;2022-07-03T00:28:30;1.33;;;0.90;;
55172;SDS011;41061;52.822;6.860;2022-07-03T00:30:57;2.70;;;0.82;;
55172;SDS011;41061;52.822;6.860;2022-07-03T00:33:23;4.82;;;1.10;;
55172;SDS011;41061;52.822;6.860;2022-07-03T00:35:53;1.65;;;1.13;;
55172;SDS011;41061;52.822;6.860;2022-07-03T00:38:20;1.13;;;0.90;;
55172;SDS011;41061;52.822;6.860;2022-07-03T00:40:49;2.97;;;0.85;;
55172;SDS011;41061;52.822;6.860;2022-07-03T00:43:15;1.38;;;0.93;;
55172;SDS011;41061;52.822;6.860;2022-07-03T00:45:45;2.90;;;1.00;;
55172;SDS011;41061;52.822;6.860;2022-07-03T00:48:12;3.08;;;1.20;;
55172;SDS011;41061;52.822;6.860;2022-07-03T00:50:39;2.45;;;1.17;;
55172;SDS011;41061;52.822;6.860;2022-07-03T00:53:11;3.03;;;1.00;;
55172;SDS011;41061;52.822;6.860;2022-07-03T00:55:38;4.30;;;1.30;;
55172;SDS011;41061;52.822;6.860;2022-07-03T00:58:10;2.97;;;1.30;;
55172;SDS011;41061;52.822;6.860;2022-07-03T01:00:39;2.15;;;1.00;;
55172;SDS011;41061;52.822;6.860;2022-07-03T01:03:13;1.52;;;1.00;;
55172;SDS011;41061;52.822;6.860;2022-07-03T01:05:51;2.25;;;1.02;;
55172;SDS011;41061;52.822;6.860;2022-07-03T01:08:34;8.45;;;2.22;;
55172;SDS011;41061;52.822;6.860;2022-07-03T01:11:28;1.88;;;1.02;;
55172;SDS011;41061;52.822;6.860;2022-07-03T01:16:51;2.15;;;1.17;;
55172;SDS011;41061;52.822;6.860;2022-07-03T01:30:29;3.65;;;1.00;;
55172;SDS011;41061;52.822;6.860;2022-07-03T01:35:39;4.13;;;1.85;;
55172;SDS011;41061;52.822;6.860;2022-07-03T01:38:09;5.57;;;1.38;;
55172;SDS011;41061;52.822;6.860;2022-07-03T01:40:38;2.70;;;1.27;;
55172;SDS011;41061;52.822;6.860;2022-07-03T01:43:11;2.88;;;1.40;;
55172;SDS011;41061;52.822;6.860;2022-07-03T01:45:44;2.92;;;1.17;;
55172;SDS011;41061;52.822;6.860;2022-07-03T01:48:12;2.92;;;1.10;;
55172;SDS011;41061;52.822;6.860;2022-07-03T01:50:40;2.95;;;1.30;;
55172;SDS011;41061;52.822;6.860;2022-07-03T01:53:11;5.22;;;1.25;;
55172;SDS011;41061;52.822;6.860;2022-07-03T01:55:40;3.45;;;1.40;;
55172;SDS011;41061;52.822;6.860;2022-07-03T01:58:07;4.20;;;1.30;;
55172;SDS011;41061;52.822;6.860;2022-07-03T02:00:41;3.17;;;1.23;;
55172;SDS011;41061;52.822;6.860;2022-07-03T02:03:24;1.77;;;1.23;;
55172;SDS011;41061;52.822;6.860;2022-07-03T02:05:55;3.63;;;1.45;;
55172;SDS011;41061;52.822;6.860;2022-07-03T02:08:42;1.00;;;0.90;;
55172;SDS011;41061;52.822;6.860;2022-07-03T02:11:30;4.88;;;1.30;;
55172;SDS011;41061;52.822;6.860;2022-07-03T02:14:18;4.43;;;1.17;;
55172;SDS011;41061;52.822;6.860;2022-07-03T02:16:54;2.55;;;1.23;;
55172;SDS011;41061;52.822;6.860;2022-07-03T02:19:48;4.85;;;1.60;;
55172;SDS011;41061;52.822;6.860;2022-07-03T02:22:25;1.45;;;1.10;;
55172;SDS011;41061;52.822;6.860;2022-07-03T02:24:58;1.67;;;1.10;;
55172;SDS011;41061;52.822;6.860;2022-07-03T02:27:41;6.60;;;1.50;;
55172;SDS011;41061;52.822;6.860;2022-07-03T02:30:11;2.63;;;1.60;;
55172;SDS011;41061;52.822;6.860;2022-07-03T02:32:44;5.53;;;1.40;;
55172;SDS011;41061;52.822;6.860;2022-07-03T02:35:17;2.58;;;1.02;;
55172;SDS011;41061;52.822;6.860;2022-07-03T02:40:28;3.95;;;1.70;;
55172;SDS011;41061;52.822;6.860;2022-07-03T02:46:24;4.05;;;2.20;;
55172;SDS011;41061;52.822;6.860;2022-07-03T02:52:14;3.30;;;1.55;;
55172;SDS011;41061;52.822;6.860;2022-07-03T02:54:49;9.80;;;1.70;;
55172;SDS011;41061;52.822;6.860;2022-07-03T02:57:17;7.13;;;1.50;;
55172;SDS011;41061;52.822;6.860;2022-07-03T02:59:45;2.13;;;1.38;;
55172;SDS011;41061;52.822;6.860;2022-07-03T03:05:05;2.10;;;1.50;;
55172;SDS011;41061;52.822;6.860;2022-07-03T03:10:14;4.32;;;1.50;;
55172;SDS011;41061;52.822;6.860;2022-07-03T03:12:45;3.85;;;1.33;;
55172;SDS011;41061;52.822;6.860;2022-07-03T03:15:13;4.45;;;1.48;;
55172;SDS011;41061;52.822;6.860;2022-07-03T03:17:47;4.18;;;1.60;;
55172;SDS011;41061;52.822;6.860;2022-07-03T03:20:16;4.40;;;2.05;;
55172;SDS011;41061;52.822;6.860;2022-07-03T03:25:43;3.13;;;1.65;;
55172;SDS011;41061;52.822;6.860;2022-07-03T03:28:09;4.18;;;2.20;;
55172;SDS011;41061;52.822;6.860;2022-07-03T03:30:39;3.78;;;2.40;;
55172;SDS011;41061;52.822;6.860;2022-07-03T03:33:05;3.22;;;1.73;;
55172;SDS011;41061;52.822;6.860;2022-07-03T03:35:36;3.50;;;2.03;;
55172;SDS011;41061;52.822;6.860;2022-07-03T03:38:03;3.60;;;1.70;;
55172;SDS011;41061;52.822;6.860;2022-07-03T03:40:30;2.35;;;1.60;;
55172;SDS011;41061;52.822;6.860;2022-07-03T03:42:57;3.13;;;1.88;;
55172;SDS011;41061;52.822;6.860;2022-07-03T03:45:23;2.25;;;1.63;;
55172;SDS011;41061;52.822;6.860;2022-07-03T03:47:49;5.00;;;1.92;;
55172;SDS011;41061;52.822;6.860;2022-07-03T03:50:15;1.85;;;1.40;;
55172;SDS011;41061;52.822;6.860;2022-07-03T03:52:41;2.53;;;1.60;;
55172;SDS011;41061;52.822;6.860;2022-07-03T03:55:07;3.30;;;1.80;;
55172;SDS011;41061;52.822;6.860;2022-07-03T03:57:34;1.83;;;1.67;;
55172;SDS011;41061;52.822;6.860;2022-07-03T04:00:00;2.92;;;1.90;;
55172;SDS011;41061;52.822;6.860;2022-07-03T04:02:26;3.10;;;1.50;;
55172;SDS011;41061;52.822;6.860;2022-07-03T04:04:52;2.95;;;1.90;;
55172;SDS011;41061;52.822;6.860;2022-07-03T04:07:18;3.28;;;2.20;;
55172;SDS011;41061;52.822;6.860;2022-07-03T04:09:49;3.58;;;2.28;;
55172;SDS011;41061;52.822;6.860;2022-07-03T04:12:15;8.73;;;2.53;;
55172;SDS011;41061;52.822;6.860;2022-07-03T04:14:41;6.53;;;2.55;;
55172;SDS011;41061;52.822;6.860;2022-07-03T04:17:09;3.35;;;2.17;;
55172;SDS011;41061;52.822;6.860;2022-07-03T04:19:38;4.90;;;2.50;;
55172;SDS011;41061;52.822;6.860;2022-07-03T04:22:04;5.75;;;2.25;;
55172;SDS011;41061;52.822;6.860;2022-07-03T04:24:36;7.95;;;2.15;;
55172;SDS011;41061;52.822;6.860;2022-07-03T04:27:05;4.47;;;2.00;;
55172;SDS011;41061;52.822;6.860;2022-07-03T04:29:30;5.55;;;2.42;;
55172;SDS011;41061;52.822;6.860;2022-07-03T04:31:56;3.78;;;2.63;;
55172;SDS011;41061;52.822;6.860;2022-07-03T04:34:22;4.72;;;2.45;;
55172;SDS011;41061;52.822;6.860;2022-07-03T04:36:47;4.47;;;3.03;;
55172;SDS011;41061;52.822;6.860;2022-07-03T04:39:14;5.80;;;3.35;;
55172;SDS011;41061;52.822;6.860;2022-07-03T04:41:40;4.15;;;2.90;;
55172;SDS011;41061;52.822;6.860;2022-07-03T04:44:11;6.35;;;2.88;;
55172;SDS011;41061;52.822;6.860;2022-07-03T04:46:39;3.72;;;2.70;;
55172;SDS011;41061;52.822;6.860;2022-07-03T04:49:05;4.57;;;3.00;;
55172;SDS011;41061;52.822;6.860;2022-07-03T04:51:31;4.18;;;3.10;;
55172;SDS011;41061;52.822;6.860;2022-07-03T04:53:56;9.30;;;3.42;;
55172;SDS011;41061;52.822;6.860;2022-07-03T04:56:22;6.32;;;3.70;;
55172;SDS011;41061;52.822;6.860;2022-07-03T04:58:48;7.57;;;2.88;;
55172;SDS011;41061;52.822;6.860;2022-07-03T05:01:13;6.97;;;3.55;;
55172;SDS011;41061;52.822;6.860;2022-07-03T05:03:39;5.30;;;3.30;;
55172;SDS011;41061;52.822;6.860;2022-07-03T05:06:05;3.58;;;3.28;;
55172;SDS011;41061;52.822;6.860;2022-07-03T05:08:31;4.25;;;3.72;;
55172;SDS011;41061;52.822;6.860;2022-07-03T05:11:00;4.70;;;3.20;;
55172;SDS011;41061;52.822;6.860;2022-07-03T05:13:26;4.20;;;3.63;;
55172;SDS011;41061;52.822;6.860;2022-07-03T05:15:52;5.45;;;3.53;;
55172;SDS011;41061;52.822;6.860;2022-07-03T05:18:18;5.68;;;3.50;;
55172;SDS011;41061;52.822;6.860;2022-07-03T05:20:43;3.97;;;3.42;;
55172;SDS011;41061;52.822;6.860;2022-07-03T05:23:09;7.05;;;3.92;;
55172;SDS011;41061;52.822;6.860;2022-07-03T05:25:35;4.68;;;3.72;;
55172;SDS011;41061;52.822;6.860;2022-07-03T05:28:00;6.45;;;4.03;;
55172;SDS011;41061;52.822;6.860;2022-07-03T05:30:27;5.82;;;3.92;;
55172;SDS011;41061;52.822;6.860;2022-07-03T05:32:53;4.32;;;3.75;;
55172;SDS011;41061;52.822;6.860;2022-07-03T05:35:19;6.90;;;4.50;;
55172;SDS011;41061;52.822;6.860;2022-07-03T05:37:45;6.55;;;4.20;;
55172;SDS011;41061;52.822;6.860;2022-07-03T05:40:11;8.55;;;4.15;;
55172;SDS011;41061;52.822;6.860;2022-07-03T05:42:46;5.82;;;4.25;;
55172;SDS011;41061;52.822;6.860;2022-07-03T05:45:11;4.60;;;3.60;;
55172;SDS011;41061;52.822;6.860;2022-07-03T05:47:37;6.85;;;4.25;;
55172;SDS011;41061;52.822;6.860;2022-07-03T05:50:06;7.43;;;4.53;;
55172;SDS011;41061;52.822;6.860;2022-07-03T05:52:41;8.20;;;3.85;;
55172;SDS011;41061;52.822;6.860;2022-07-03T05:55:13;5.50;;;4.10;;
55172;SDS011;41061;52.822;6.860;2022-07-03T05:57:38;6.65;;;4.35;;
55172;SDS011;41061;52.822;6.860;2022-07-03T06:00:04;6.10;;;4.40;;
55172;SDS011;41061;52.822;6.860;2022-07-03T06:02:40;5.38;;;3.90;;
55172;SDS011;41061;52.822;6.860;2022-07-03T06:05:05;6.22;;;3.47;;
55172;SDS011;41061;52.822;6.860;2022-07-03T06:07:31;7.68;;;3.85;;
55172;SDS011;41061;52.822;6.860;2022-07-03T06:09:57;6.47;;;3.88;;
55172;SDS011;41061;52.822;6.860;2022-07-03T06:12:22;5.60;;;3.53;;
55172;SDS011;41061;52.822;6.860;2022-07-03T06:14:48;6.95;;;3.33;;
55172;SDS011;41061;52.822;6.860;2022-07-03T06:17:14;4.75;;;2.83;;
55172;SDS011;41061;52.822;6.860;2022-07-03T06:19:39;5.68;;;2.50;;
55172;SDS011;41061;52.822;6.860;2022-07-03T06:22:08;7.60;;;3.20;;
55172;SDS011;41061;52.822;6.860;2022-07-03T06:24:34;7.88;;;2.70;;
55172;SDS011;41061;52.822;6.860;2022-07-03T06:27:00;4.82;;;2.97;;
55172;SDS011;41061;52.822;6.860;2022-07-03T06:29:25;4.07;;;2.42;;
55172;SDS011;41061;52.822;6.860;2022-07-03T06:31:51;4.13;;;2.20;;
55172;SDS011;41061;52.822;6.860;2022-07-03T06:34:17;5.65;;;2.67;;
55172;SDS011;41061;52.822;6.860;2022-07-03T06:36:45;4.88;;;2.40;;
55172;SDS011;41061;52.822;6.860;2022-07-03T06:39:11;3.10;;;1.70;;
55172;SDS011;41061;52.822;6.860;2022-07-03T06:41:36;3.85;;;1.50;;
55172;SDS011;41061;52.822;6.860;2022-07-03T06:44:05;4.07;;;1.30;;
55172;SDS011;41061;52.822;6.860;2022-07-03T06:46:34;3.60;;;1.30;;
55172;SDS011;41061;52.822;6.860;2022-07-03T06:48:59;4.10;;;1.17;;
55172;SDS011;41061;52.822;6.860;2022-07-03T06:51:25;3.45;;;1.23;;
55172;SDS011;41061;52.822;6.860;2022-07-03T06:53:51;4.38;;;1.20;;
55172;SDS011;41061;52.822;6.860;2022-07-03T06:56:16;2.50;;;1.10;;
55172;SDS011;41061;52.822;6.860;2022-07-03T06:58:42;2.10;;;1.15;;
55172;SDS011;41061;52.822;6.860;2022-07-03T07:01:11;4.18;;;1.10;;
55172;SDS011;41061;52.822;6.860;2022-07-03T07:03:39;3.33;;;1.08;;
55172;SDS011;41061;52.822;6.860;2022-07-03T07:06:05;3.78;;;1.10;;
55172;SDS011;41061;52.822;6.860;2022-07-03T07:08:30;3.20;;;1.20;;
55172;SDS011;41061;52.822;6.860;2022-07-03T07:10:56;4.13;;;1.40;;
55172;SDS011;41061;52.822;6.860;2022-07-03T07:13:22;5.13;;;1.40;;
55172;SDS011;41061;52.822;6.860;2022-07-03T07:15:47;2.80;;;1.10;;
55172;SDS011;41061;52.822;6.860;2022-07-03T07:18:13;6.03;;;1.20;;
55172;SDS011;41061;52.822;6.860;2022-07-03T07:20:39;4.45;;;1.23;;
55172;SDS011;41061;52.822;6.860;2022-07-03T07:23:05;4.95;;;1.00;;
55172;SDS011;41061;52.822;6.860;2022-07-03T07:25:31;5.30;;;1.00;;
55172;SDS011;41061;52.822;6.860;2022-07-03T07:27:57;2.90;;;0.88;;
55172;SDS011;41061;52.822;6.860;2022-07-03T07:30:22;2.67;;;0.82;;
55172;SDS011;41061;52.822;6.860;2022-07-03T07:32:48;3.92;;;0.90;;
55172;SDS011;41061;52.822;6.860;2022-07-03T07:35:13;4.93;;;1.10;;
55172;SDS011;41061;52.822;6.860;2022-07-03T07:37:39;4.53;;;1.23;;
55172;SDS011;41061;52.822;6.860;2022-07-03T07:40:08;3.15;;;1.65;;
55172;SDS011;41061;52.822;6.860;2022-07-03T07:42:34;3.10;;;1.30;;
55172;SDS011;41061;52.822;6.860;2022-07-03T07:45:00;3.15;;;1.30;;
55172;SDS011;41061;52.822;6.860;2022-07-03T07:47:28;5.38;;;1.55;;
55172;SDS011;41061;52.822;6.860;2022-07-03T07:49:57;3.50;;;1.20;;
55172;SDS011;41061;52.822;6.860;2022-07-03T07:52:22;4.00;;;1.50;;
55172;SDS011;41061;52.822;6.860;2022-07-03T07:54:50;2.55;;;1.40;;
55172;SDS011;41061;52.822;6.860;2022-07-03T07:57:16;6.97;;;1.63;;
55172;SDS011;41061;52.822;6.860;2022-07-03T07:59:42;3.28;;;1.10;;
55172;SDS011;41061;52.822;6.860;2022-07-03T08:02:07;2.95;;;1.33;;
55172;SDS011;41061;52.822;6.860;2022-07-03T08:04:55;2.60;;;1.20;;
55172;SDS011;41061;52.822;6.860;2022-07-03T08:07:39;3.67;;;1.20;;
55172;SDS011;41061;52.822;6.860;2022-07-03T08:10:05;3.60;;;1.10;;
55172;SDS011;41061;52.822;6.860;2022-07-03T08:12:30;5.07;;;1.35;;
55172;SDS011;41061;52.822;6.860;2022-07-03T08:14:56;2.05;;;1.20;;
55172;SDS011;41061;52.822;6.860;2022-07-03T08:17:24;2.88;;;1.00;;
55172;SDS011;41061;52.822;6.860;2022-07-03T08:19:50;4.63;;;1.20;;
55172;SDS011;41061;52.822;6.860;2022-07-03T08:22:19;4.18;;;1.25;;
55172;SDS011;41061;52.822;6.860;2022-07-03T08:24:44;4.07;;;1.10;;
55172;SDS011;41061;52.822;6.860;2022-07-03T08:27:12;4.57;;;1.58;;
55172;SDS011;41061;52.822;6.860;2022-07-03T08:29:44;3.67;;;1.10;;
55172;SDS011;41061;52.822;6.860;2022-07-03T08:32:10;3.33;;;0.90;;
55172;SDS011;41061;52.822;6.860;2022-07-03T08:34:38;6.00;;;1.20;;
55172;SDS011;41061;52.822;6.860;2022-07-03T08:37:04;2.35;;;1.00;;
55172;SDS011;41061;52.822;6.860;2022-07-03T08:39:29;3.03;;;1.23;;
55172;SDS011;41061;52.822;6.860;2022-07-03T08:41:58;3.17;;;1.23;;
55172;SDS011;41061;52.822;6.860;2022-07-03T08:44:24;2.85;;;1.25;;
55172;SDS011;41061;52.822;6.860;2022-07-03T08:46:50;3.33;;;1.35;;
55172;SDS011;41061;52.822;6.860;2022-07-03T08:49:16;3.10;;;1.35;;
55172;SDS011;41061;52.822;6.860;2022-07-03T08:51:47;5.00;;;1.65;;
55172;SDS011;41061;52.822;6.860;2022-07-03T08:54:13;4.53;;;1.55;;
55172;SDS011;41061;52.822;6.860;2022-07-03T08:56:42;2.42;;;1.23;;
55172;SDS011;41061;52.822;6.860;2022-07-03T08:59:08;2.83;;;1.50;;
55172;SDS011;41061;52.822;6.860;2022-07-03T09:01:34;2.58;;;1.17;;
55172;SDS011;41061;52.822;6.860;2022-07-03T09:04:06;6.63;;;2.03;;
55172;SDS011;41061;52.822;6.860;2022-07-03T09:06:40;5.18;;;1.30;;
55172;SDS011;41061;52.822;6.860;2022-07-03T09:09:07;4.80;;;1.40;;
55172;SDS011;41061;52.822;6.860;2022-07-03T09:11:39;5.43;;;1.15;;
55172;SDS011;41061;52.822;6.860;2022-07-03T09:14:05;3.50;;;1.15;;
55172;SDS011;41061;52.822;6.860;2022-07-03T09:16:36;5.00;;;1.10;;
55172;SDS011;41061;52.822;6.860;2022-07-03T09:19:02;5.50;;;1.10;;
55172;SDS011;41061;52.822;6.860;2022-07-03T09:21:36;3.67;;;1.10;;
55172;SDS011;41061;52.822;6.860;2022-07-03T09:24:07;5.90;;;1.40;;
55172;SDS011;41061;52.822;6.860;2022-07-03T09:26:36;2.30;;;1.05;;
55172;SDS011;41061;52.822;6.860;2022-07-03T09:29:14;3.75;;;1.13;;
55172;SDS011;41061;52.822;6.860;2022-07-03T09:31:39;3.08;;;1.33;;
55172;SDS011;41061;52.822;6.860;2022-07-03T09:34:18;3.45;;;1.20;;
55172;SDS011;41061;52.822;6.860;2022-07-03T09:36:49;2.65;;;1.20;;
55172;SDS011;41061;52.822;6.860;2022-07-03T09:39:23;4.85;;;1.30;;
55172;SDS011;41061;52.822;6.860;2022-07-03T09:41:51;4.60;;;1.48;;
55172;SDS011;41061;52.822;6.860;2022-07-03T09:44:39;6.05;;;1.60;;
55172;SDS011;41061;52.822;6.860;2022-07-03T09:55:16;4.97;;;1.30;;
55172;SDS011;41061;52.822;6.860;2022-07-03T10:02:55;2.97;;;0.90;;
55172;SDS011;41061;52.822;6.860;2022-07-03T10:05:42;6.15;;;1.05;;
55172;SDS011;41061;52.822;6.860;2022-07-03T10:08:10;2.75;;;1.00;;
55172;SDS011;41061;52.822;6.860;2022-07-03T10:10:41;2.33;;;0.73;;
55172;SDS011;41061;52.822;6.860;2022-07-03T10:13:11;2.80;;;0.90;;
55172;SDS011;41061;52.822;6.860;2022-07-03T10:15:38;5.95;;;0.88;;
55172;SDS011;41061;52.822;6.860;2022-07-03T10:18:06;2.53;;;0.60;;
55172;SDS011;41061;52.822;6.860;2022-07-03T10:20:38;2.67;;;0.60;;
55172;SDS011;41061;52.822;6.860;2022-07-03T10:23:04;6.35;;;1.00;;
55172;SDS011;41061;52.822;6.860;2022-07-03T10:25:30;3.05;;;0.80;;
55172;SDS011;41061;52.822;6.860;2022-07-03T10:27:56;2.40;;;0.70;;
55172;SDS011;41061;52.822;6.860;2022-07-03T10:30:23;1.80;;;0.70;;
55172;SDS011;41061;52.822;6.860;2022-07-03T10:32:51;1.77;;;0.80;;
55172;SDS011;41061;52.822;6.860;2022-07-03T10:35:21;2.90;;;0.98;;
55172;SDS011;41061;52.822;6.860;2022-07-03T10:43:21;4.95;;;0.90;;
55172;SDS011;41061;52.822;6.860;2022-07-03T10:48:51;4.30;;;1.23;;
55172;SDS011;41061;52.822;6.860;2022-07-03T10:51:20;2.08;;;0.70;;
55172;SDS011;41061;52.822;6.860;2022-07-03T10:53:46;2.03;;;0.55;;
55172;SDS011;41061;52.822;6.860;2022-07-03T10:56:12;1.52;;;0.68;;
55172;SDS011;41061;52.822;6.860;2022-07-03T10:58:59;2.17;;;0.60;;
55172;SDS011;41061;52.822;6.860;2022-07-03T11:01:28;1.77;;;0.75;;
55172;SDS011;41061;52.822;6.860;2022-07-03T11:03:58;2.58;;;0.70;;
55172;SDS011;41061;52.822;6.860;2022-07-03T11:09:09;2.72;;;0.90;;
55172;SDS011;41061;52.822;6.860;2022-07-03T11:11:43;1.00;;;0.63;;
55172;SDS011;41061;52.822;6.860;2022-07-03T11:14:24;1.35;;;0.60;;
55172;SDS011;41061;52.822;6.860;2022-07-03T11:19:43;1.10;;;0.50;;
55172;SDS011;41061;52.822;6.860;2022-07-03T11:22:11;2.20;;;0.60;;
55172;SDS011;41061;52.822;6.860;2022-07-03T11:24:46;4.38;;;0.60;;
55172;SDS011;41061;52.822;6.860;2022-07-03T11:27:24;0.73;;;0.50;;
55172;SDS011;41061;52.822;6.860;2022-07-03T11:29:54;1.95;;;0.80;;
55172;SDS011;41061;52.822;6.860;2022-07-03T11:38:17;4.82;;;0.70;;
55172;SDS011;41061;52.822;6.860;2022-07-03T11:40:48;1.73;;;0.55;;
55172;SDS011;41061;52.822;6.860;2022-07-03T11:43:21;1.60;;;0.60;;
55172;SDS011;41061;52.822;6.860;2022-07-03T11:45:49;2.50;;;0.60;;
55172;SDS011;41061;52.822;6.860;2022-07-03T11:48:21;3.92;;;0.80;;
55172;SDS011;41061;52.822;6.860;2022-07-03T11:50:51;1.92;;;0.47;;
55172;SDS011;41061;52.822;6.860;2022-07-03T11:53:25;2.60;;;0.70;;
55172;SDS011;41061;52.822;6.860;2022-07-03T11:56:09;2.88;;;0.90;;
55172;SDS011;41061;52.822;6.860;2022-07-03T11:58:46;0.90;;;0.40;;
55172;SDS011;41061;52.822;6.860;2022-07-03T12:03:51;4.18;;;0.65;;
55172;SDS011;41061;52.822;6.860;2022-07-03T12:06:38;1.48;;;0.63;;
55172;SDS011;41061;52.822;6.860;2022-07-03T12:09:34;5.18;;;1.05;;
55172;SDS011;41061;52.822;6.860;2022-07-03T12:12:01;3.05;;;0.68;;
55172;SDS011;41061;52.822;6.860;2022-07-03T12:14:36;4.05;;;0.70;;
55172;SDS011;41061;52.822;6.860;2022-07-03T12:17:03;3.65;;;0.63;;
55172;SDS011;41061;52.822;6.860;2022-07-03T12:19:46;5.57;;;0.73;;
55172;SDS011;41061;52.822;6.860;2022-07-03T12:22:33;2.47;;;1.02;;
55172;SDS011;41061;52.822;6.860;2022-07-03T12:27:28;1.30;;;0.60;;
55172;SDS011;41061;52.822;6.860;2022-07-03T12:29:55;1.85;;;0.50;;
55172;SDS011;41061;52.822;6.860;2022-07-03T12:32:21;1.17;;;0.40;;
55172;SDS011;41061;52.822;6.860;2022-07-03T12:34:48;3.05;;;0.50;;
55172;SDS011;41061;52.822;6.860;2022-07-03T12:37:14;1.95;;;0.50;;
55172;SDS011;41061;52.822;6.860;2022-07-03T12:39:49;1.40;;;0.57;;
55172;SDS011;41061;52.822;6.860;2022-07-03T12:42:21;2.58;;;0.45;;
55172;SDS011;41061;52.822;6.860;2022-07-03T12:45:00;0.85;;;0.52;;
55172;SDS011;41061;52.822;6.860;2022-07-03T12:47:28;1.38;;;0.40;;
55172;SDS011;41061;52.822;6.860;2022-07-03T12:52:22;1.13;;;0.40;;
55172;SDS011;41061;52.822;6.860;2022-07-03T12:54:48;3.30;;;0.40;;
55172;SDS011;41061;52.822;6.860;2022-07-03T12:57:13;1.70;;;0.40;;
55172;SDS011;41061;52.822;6.860;2022-07-03T13:00:13;1.45;;;0.50;;
55172;SDS011;41061;52.822;6.860;2022-07-03T13:02:42;2.78;;;0.80;;
55172;SDS011;41061;52.822;6.860;2022-07-03T13:05:22;1.90;;;0.73;;
55172;SDS011;41061;52.822;6.860;2022-07-03T13:07:53;2.80;;;0.82;;
55172;SDS011;41061;52.822;6.860;2022-07-03T13:10:20;4.95;;;1.00;;
55172;SDS011;41061;52.822;6.860;2022-07-03T13:12:55;3.03;;;0.88;;
55172;SDS011;41061;52.822;6.860;2022-07-03T13:15:26;1.55;;;0.43;;
55172;SDS011;41061;52.822;6.860;2022-07-03T13:20:18;1.50;;;0.50;;
55172;SDS011;41061;52.822;6.860;2022-07-03T13:22:46;1.42;;;0.98;;
55172;SDS011;41061;52.822;6.860;2022-07-03T13:25:13;2.13;;;0.50;;
55172;SDS011;41061;52.822;6.860;2022-07-03T13:27:39;3.00;;;0.50;;
55172;SDS011;41061;52.822;6.860;2022-07-03T13:30:11;2.72;;;0.60;;
55172;SDS011;41061;52.822;6.860;2022-07-03T13:32:38;2.58;;;0.80;;
55172;SDS011;41061;52.822;6.860;2022-07-03T13:35:04;1.55;;;0.70;;
55172;SDS011;41061;52.822;6.860;2022-07-03T13:37:31;2.08;;;0.60;;
55172;SDS011;41061;52.822;6.860;2022-07-03T13:39:56;3.17;;;0.75;;
55172;SDS011;41061;52.822;6.860;2022-07-03T13:42:22;4.97;;;0.93;;
55172;SDS011;41061;52.822;6.860;2022-07-03T13:44:47;2.42;;;0.60;;
55172;SDS011;41061;52.822;6.860;2022-07-03T13:47:15;1.73;;;0.60;;
55172;SDS011;41061;52.822;6.860;2022-07-03T13:49:41;2.63;;;0.68;;
55172;SDS011;41061;52.822;6.860;2022-07-03T13:52:07;3.88;;;0.90;;
55172;SDS011;41061;52.822;6.860;2022-07-03T13:54:32;2.75;;;0.68;;
55172;SDS011;41061;52.822;6.860;2022-07-03T13:56:58;3.47;;;0.60;;
55172;SDS011;41061;52.822;6.860;2022-07-03T13:59:24;1.67;;;0.70;;
55172;SDS011;41061;52.822;6.860;2022-07-03T14:01:50;1.77;;;0.55;;
55172;SDS011;41061;52.822;6.860;2022-07-03T14:04:15;10.93;;;1.30;;
55172;SDS011;41061;52.822;6.860;2022-07-03T14:06:41;4.93;;;1.10;;
55172;SDS011;41061;52.822;6.860;2022-07-03T14:09:07;3.08;;;1.00;;
55172;SDS011;41061;52.822;6.860;2022-07-03T14:11:32;5.43;;;1.45;;
55172;SDS011;41061;52.822;6.860;2022-07-03T14:13:58;6.50;;;1.48;;
55172;SDS011;41061;52.822;6.860;2022-07-03T14:16:24;4.97;;;1.73;;
55172;SDS011;41061;52.822;6.860;2022-07-03T14:18:49;3.60;;;1.83;;
55172;SDS011;41061;52.822;6.860;2022-07-03T14:21:15;3.90;;;1.38;;
55172;SDS011;41061;52.822;6.860;2022-07-03T14:23:41;2.45;;;1.15;;
55172;SDS011;41061;52.822;6.860;2022-07-03T14:26:09;3.33;;;1.20;;
55172;SDS011;41061;52.822;6.860;2022-07-03T14:28:35;3.70;;;1.20;;
55172;SDS011;41061;52.822;6.860;2022-07-03T14:31:19;2.08;;;0.93;;
55172;SDS011;41061;52.822;6.860;2022-07-03T14:33:51;2.47;;;1.10;;
55172;SDS011;41061;52.822;6.860;2022-07-03T14:36:18;3.40;;;1.15;;
55172;SDS011;41061;52.822;6.860;2022-07-03T14:38:44;2.67;;;1.00;;
55172;SDS011;41061;52.822;6.860;2022-07-03T14:41:09;1.48;;;1.10;;
55172;SDS011;41061;52.822;6.860;2022-07-03T14:43:36;3.20;;;0.93;;
55172;SDS011;41061;52.822;6.860;2022-07-03T14:46:01;2.90;;;0.88;;
55172;SDS011;41061;52.822;6.860;2022-07-03T14:48:27;1.55;;;0.77;;
55172;SDS011;41061;52.822;6.860;2022-07-03T14:50:53;2.65;;;1.10;;
55172;SDS011;41061;52.822;6.860;2022-07-03T14:53:20;1.63;;;0.65;;
55172;SDS011;41061;52.822;6.860;2022-07-03T14:55:47;3.28;;;0.80;;
55172;SDS011;41061;52.822;6.860;2022-07-03T14:58:21;2.00;;;1.08;;
55172;SDS011;41061;52.822;6.860;2022-07-03T15:00:51;1.45;;;0.80;;
55172;SDS011;41061;52.822;6.860;2022-07-03T15:03:26;1.10;;;0.50;;
55172;SDS011;41061;52.822;6.860;2022-07-03T15:05:55;2.20;;;0.70;;
55172;SDS011;41061;52.822;6.860;2022-07-03T15:10:54;1.55;;;0.70;;
55172;SDS011;41061;52.822;6.860;2022-07-03T15:13:20;0.88;;;0.50;;
55172;SDS011;41061;52.822;6.860;2022-07-03T15:15:47;1.65;;;0.50;;
55172;SDS011;41061;52.822;6.860;2022-07-03T15:18:15;0.43;;;0.43;;
55172;SDS011;41061;52.822;6.860;2022-07-03T15:20:45;1.33;;;0.63;;
55172;SDS011;41061;52.822;6.860;2022-07-03T15:23:12;1.75;;;0.60;;
55172;SDS011;41061;52.822;6.860;2022-07-03T15:25:38;4.00;;;0.70;;
55172;SDS011;41061;52.822;6.860;2022-07-03T15:28:05;2.20;;;0.65;;
55172;SDS011;41061;52.822;6.860;2022-07-03T15:30:35;2.78;;;0.50;;
55172;SDS011;41061;52.822;6.860;2022-07-03T15:33:01;3.67;;;0.80;;
55172;SDS011;41061;52.822;6.860;2022-07-03T15:35:27;0.85;;;0.60;;
55172;SDS011;41061;52.822;6.860;2022-07-03T15:40:40;1.65;;;0.82;;
55172;SDS011;41061;52.822;6.860;2022-07-03T15:49:12;3.85;;;1.02;;
55172;SDS011;41061;52.822;6.860;2022-07-03T15:54:44;1.95;;;0.90;;
55172;SDS011;41061;52.822;6.860;2022-07-03T15:59:57;4.15;;;1.30;;
55172;SDS011;41061;52.822;6.860;2022-07-03T16:05:05;1.48;;;0.80;;
55172;SDS011;41061;52.822;6.860;2022-07-03T16:07:35;2.17;;;1.20;;
55172;SDS011;41061;52.822;6.860;2022-07-03T16:10:03;1.00;;;0.70;;
55172;SDS011;41061;52.822;6.860;2022-07-03T16:12:32;3.35;;;0.60;;
55172;SDS011;41061;52.822;6.860;2022-07-03T16:14:57;2.47;;;0.80;;
55172;SDS011;41061;52.822;6.860;2022-07-03T16:17:24;1.88;;;0.80;;
55172;SDS011;41061;52.822;6.860;2022-07-03T16:19:51;2.17;;;0.77;;
55172;SDS011;41061;52.822;6.860;2022-07-03T16:22:17;2.42;;;0.60;;
55172;SDS011;41061;52.822;6.860;2022-07-03T16:24:43;2.60;;;0.70;;
55172;SDS011;41061;52.822;6.860;2022-07-03T16:27:11;2.22;;;0.77;;
55172;SDS011;41061;52.822;6.860;2022-07-03T16:29:38;1.20;;;0.55;;
55172;SDS011;41061;52.822;6.860;2022-07-03T16:32:06;1.60;;;0.57;;
55172;SDS011;41061;52.822;6.860;2022-07-03T16:34:37;1.13;;;0.60;;
55172;SDS011;41061;52.822;6.860;2022-07-03T16:37:15;2.00;;;0.75;;